Terminal Aerodrome Forecast
Issued by NWS

Home | Current Version | Previous Version | Text Only | Print | Product List | Glossary On
Versions: 1 2 3 4 5 6 7 8 9 10 11 12 13 14 15 16 17 18 19 20 21 22 23 24
000
FTUS45 KBOI 202219 AAA
TAFBKE
TAF AMD
KBKE 202219Z 2022/2118 11015G25KT 4SM -SHSN BR SCT015 OVC025
     FM210300 11008KT 1SM -SHSN BR SCT008 OVC015
     FM210900 VRB06KT P6SM SCT015 OVC025=

USA.gov is the U.S. government's official web portal to all federal, state and local government web resources and services.